createdAt,value
2016-12-12T00:00:58.200Z,99.99
2016-12-12T00:01:58.132Z,99.99
2016-12-12T00:02:58.192Z,99.99
2016-12-12T00:03:58.276Z,99.99
2016-12-12T00:04:58.273Z,99.99
2016-12-12T00:06:01.293Z,99.99
2016-12-12T00:06:58.163Z,99.99
2016-12-12T00:07:58.245Z,99.99
2016-12-12T00:08:58.162Z,99.99
2016-12-12T00:09:58.163Z,99.99
2016-12-12T00:10:58.151Z,99.99
2016-12-12T00:11:58.263Z,99.99
2016-12-12T00:12:58.157Z,99.99
2016-12-12T00:13:58.200Z,99.99
2016-12-12T00:14:58.163Z,99.99
2016-12-12T00:15:58.305Z,99.99
2016-12-12T00:16:58.170Z,99.99
2016-12-12T00:17:58.303Z,99.99
2016-12-12T00:18:58.228Z,99.99
2016-12-12T00:19:58.212Z,99.99
2016-12-12T00:20:58.153Z,99.99
2016-12-12T00:21:58.276Z,99.99
2016-12-12T00:22:58.215Z,99.99
2016-12-12T00:23:58.174Z,99.99
2016-12-12T00:24:58.254Z,99.99
2016-12-12T00:25:58.178Z,99.99
2016-12-12T00:27:08.136Z,99.99
2016-12-12T00:27:58.255Z,99.99
2016-12-12T00:28:58.282Z,99.99
2016-12-12T00:29:58.228Z,99.99
2016-12-12T00:30:58.273Z,99.99
2016-12-12T00:31:58.225Z,99.99
2016-12-12T00:32:58.295Z,99.99
2016-12-12T00:33:58.211Z,99.99
2016-12-12T00:34:58.293Z,99.99
2016-12-12T00:35:58.232Z,99.99
2016-12-12T00:36:58.255Z,99.99
2016-12-12T00:37:58.187Z,99.99
2016-12-12T00:38:58.214Z,99.99
2016-12-12T00:39:58.334Z,99.99
2016-12-12T00:40:58.200Z,99.99
2016-12-12T00:41:58.204Z,99.99
2016-12-12T00:42:58.276Z,99.99
2016-12-12T00:43:58.248Z,99.99
2016-12-12T00:44:58.213Z,99.99
2016-12-12T00:45:58.215Z,99.99
2016-12-12T00:46:58.281Z,99.99
2016-12-12T00:47:58.271Z,99.99
2016-12-12T00:48:58.666Z,99.99
2016-12-12T00:49:58.213Z,99.99
2016-12-12T00:50:58.373Z,99.99
2016-12-12T00:51:58.373Z,99.99
2016-12-12T00:52:58.377Z,99.99
2016-12-12T00:53:58.611Z,99.99
2016-12-12T00:54:58.365Z,99.99
2016-12-12T00:55:58.265Z,99.99
2016-12-12T00:56:58.181Z,99.99
2016-12-12T00:57:58.192Z,99.99
2016-12-12T00:58:58.222Z,99.99
2016-12-12T00:59:58.265Z,99.99
2016-12-12T01:00:58.224Z,99.99
2016-12-12T01:01:58.215Z,99.99
2016-12-12T01:02:58.224Z,99.99
2016-12-12T01:03:58.293Z,99.99
2016-12-12T01:04:58.248Z,99.99
2016-12-12T01:05:58.312Z,99.99
2016-12-12T01:06:58.302Z,99.99
2016-12-12T01:07:58.466Z,99.99
2016-12-12T01:08:58.279Z,99.99
2016-12-12T01:09:58.268Z,99.99
2016-12-12T01:10:58.241Z,99.99
2016-12-12T01:11:58.204Z,99.99
2016-12-12T01:12:58.228Z,99.99
2016-12-12T01:13:58.336Z,99.99
2016-12-12T01:14:58.374Z,99.99
2016-12-12T01:15:58.347Z,99.99
2016-12-12T01:16:58.241Z,99.99
2016-12-12T01:17:58.349Z,99.99
2016-12-12T01:18:58.305Z,99.99
2016-12-12T01:19:58.296Z,99.99
2016-12-12T01:20:58.299Z,99.99
2016-12-12T01:21:58.316Z,99.99
2016-12-12T01:22:58.344Z,99.99
2016-12-12T01:23:58.251Z,99.99
2016-12-12T01:24:58.368Z,99.99
2016-12-12T01:25:58.337Z,99.99
2016-12-12T01:26:58.233Z,99.99
2016-12-12T01:27:58.315Z,99.99
2016-12-12T01:28:58.364Z,99.99
2016-12-12T01:29:58.288Z,99.99
2016-12-12T01:30:58.247Z,99.99
2016-12-12T01:31:58.216Z,99.99
2016-12-12T01:32:58.337Z,99.99
2016-12-12T01:33:58.282Z,99.99
2016-12-12T01:34:58.368Z,99.99
2016-12-12T01:35:58.355Z,99.99
2016-12-12T01:36:58.356Z,99.99
2016-12-12T01:37:58.286Z,99.99
2016-12-12T01:38:58.298Z,99.99
2016-12-12T01:39:58.246Z,99.99
2016-12-12T01:40:58.368Z,99.99
2016-12-12T01:41:58.265Z,99.99
2016-12-12T01:42:58.279Z,99.99
2016-12-12T01:43:58.350Z,99.99
2016-12-12T01:44:58.289Z,99.99
2016-12-12T01:45:58.296Z,99.99
2016-12-12T01:46:58.297Z,99.99
2016-12-12T01:47:58.356Z,99.99
2016-12-12T01:48:58.364Z,99.99
2016-12-12T01:49:58.353Z,99.99
2016-12-12T01:50:58.332Z,99.99
2016-12-12T01:51:58.357Z,99.99
2016-12-12T01:52:58.396Z,99.99
2016-12-12T01:53:58.387Z,99.99
2016-12-12T01:54:58.448Z,99.99
2016-12-12T01:55:58.404Z,99.99
2016-12-12T01:56:58.324Z,99.99
2016-12-12T01:57:58.266Z,99.99
2016-12-12T01:58:58.293Z,99.99
2016-12-12T01:59:58.373Z,99.99
2016-12-12T02:00:58.314Z,99.99
2016-12-12T02:01:58.263Z,99.99
2016-12-12T02:02:58.354Z,99.99
2016-12-12T02:03:58.276Z,99.99
2016-12-12T02:04:58.267Z,99.99
2016-12-12T02:05:58.296Z,99.99
2016-12-12T02:06:58.387Z,99.99
2016-12-12T02:07:58.330Z,99.99
2016-12-12T02:08:58.373Z,99.99
2016-12-12T02:09:58.367Z,99.99
2016-12-12T02:10:58.284Z,99.99
2016-12-12T02:11:58.351Z,99.99
2016-12-12T02:12:58.293Z,99.99
2016-12-12T02:13:58.280Z,99.99
2016-12-12T02:14:58.426Z,99.99
2016-12-12T02:15:58.379Z,99.99
2016-12-12T02:16:58.452Z,99.99
2016-12-12T02:17:58.297Z,99.99
2016-12-12T02:18:58.468Z,99.99
2016-12-12T02:19:58.309Z,99.99
2016-12-12T02:20:58.453Z,99.99
2016-12-12T02:21:58.378Z,99.99
2016-12-12T02:22:58.283Z,99.99
2016-12-12T02:23:59.711Z,99.99
2016-12-12T02:24:58.319Z,99.99
2016-12-12T02:25:58.378Z,99.99
2016-12-12T02:26:58.282Z,99.99
2016-12-12T02:27:58.420Z,99.99
2016-12-12T02:28:58.316Z,99.99
2016-12-12T02:29:58.416Z,99.99
2016-12-12T02:30:58.288Z,99.99
2016-12-12T02:31:58.371Z,99.99
2016-12-12T02:32:58.331Z,99.99
2016-12-12T02:33:58.320Z,99.99
2016-12-12T02:34:58.331Z,99.99
2016-12-12T02:35:58.388Z,99.99
2016-12-12T02:36:58.443Z,99.99
2016-12-12T02:37:58.251Z,99.99
2016-12-12T02:38:58.318Z,99.99
2016-12-12T02:39:58.409Z,99.99
2016-12-12T02:40:58.372Z,99.99
2016-12-12T02:41:58.420Z,99.99
2016-12-12T02:42:58.418Z,99.99
2016-12-12T02:43:58.445Z,99.99
2016-12-12T02:44:58.462Z,99.99
2016-12-12T02:45:58.334Z,99.99
2016-12-12T02:46:58.402Z,99.99
2016-12-12T02:47:58.637Z,99.99
2016-12-12T02:48:58.342Z,99.99
2016-12-12T02:49:58.327Z,99.99
2016-12-12T02:50:58.421Z,99.99
2016-12-12T02:51:58.422Z,99.99
2016-12-12T02:52:58.477Z,99.99
2016-12-12T02:53:58.364Z,99.99
2016-12-12T02:54:58.413Z,99.99
2016-12-12T02:55:58.406Z,99.99
2016-12-12T02:56:58.428Z,99.99
2016-12-12T02:57:58.347Z,99.99
2016-12-12T02:58:58.433Z,99.99
2016-12-12T02:59:58.421Z,99.99
2016-12-12T03:00:58.388Z,99.99
2016-12-12T03:01:58.467Z,99.99
2016-12-12T03:02:58.340Z,99.99
2016-12-12T03:03:58.346Z,99.99
2016-12-12T03:04:58.499Z,99.99
2016-12-12T03:05:58.326Z,99.99
2016-12-12T03:06:58.359Z,99.99
2016-12-12T03:07:58.325Z,99.99
2016-12-12T03:08:58.448Z,99.99
2016-12-12T03:09:58.413Z,99.99
2016-12-12T03:10:58.424Z,99.99
2016-12-12T03:11:58.365Z,99.99
2016-12-12T03:12:58.489Z,99.99
2016-12-12T03:13:58.385Z,99.99
2016-12-12T03:14:58.505Z,99.99
2016-12-12T03:15:58.429Z,99.99
2016-12-12T03:16:58.338Z,99.99
2016-12-12T03:17:58.433Z,99.99
2016-12-12T03:18:58.319Z,99.99
2016-12-12T03:19:58.535Z,99.99
2016-12-12T03:20:58.421Z,99.99
2016-12-12T03:21:58.349Z,99.99
2016-12-12T03:22:58.361Z,99.99
2016-12-12T03:23:58.407Z,99.99
2016-12-12T03:24:58.374Z,99.99
2016-12-12T03:25:58.438Z,99.99
2016-12-12T03:26:58.368Z,99.99
2016-12-12T03:27:59.126Z,99.99
2016-12-12T03:28:58.419Z,99.99
2016-12-12T03:29:58.401Z,99.99
2016-12-12T03:30:58.443Z,99.99
2016-12-12T03:31:58.356Z,99.99
2016-12-12T03:32:58.478Z,99.99
2016-12-12T03:33:58.427Z,99.99
2016-12-12T03:34:58.468Z,99.99
2016-12-12T03:35:58.382Z,99.99
2016-12-12T03:36:58.379Z,99.99
2016-12-12T03:37:58.448Z,99.99
2016-12-12T03:38:58.378Z,99.99
2016-12-12T03:39:58.384Z,99.99
2016-12-12T03:40:58.408Z,99.99
2016-12-12T03:41:58.477Z,99.99
2016-12-12T03:42:58.369Z,99.99
2016-12-12T03:43:58.349Z,99.99
2016-12-12T03:44:58.471Z,99.99
2016-12-12T03:45:58.386Z,99.99
2016-12-12T03:46:58.435Z,99.99
2016-12-12T03:47:58.375Z,99.99
2016-12-12T03:48:58.392Z,99.99
2016-12-12T03:49:58.381Z,99.99
2016-12-12T03:50:58.510Z,99.99
2016-12-12T03:51:58.460Z,99.99
2016-12-12T03:52:58.505Z,99.99
2016-12-12T03:53:58.470Z,99.99
2016-12-12T03:54:58.564Z,99.99
2016-12-12T03:55:58.387Z,99.99
2016-12-12T03:56:58.386Z,99.99
2016-12-12T03:57:58.497Z,99.99
2016-12-12T03:58:58.458Z,99.99
2016-12-12T03:59:58.440Z,99.99
2016-12-12T04:00:58.437Z,99.99
2016-12-12T04:01:58.430Z,99.99
2016-12-12T04:02:58.375Z,99.99
2016-12-12T04:03:58.385Z,99.99
2016-12-12T04:04:58.508Z,99.99
2016-12-12T04:05:58.485Z,99.99
2016-12-12T04:06:58.408Z,99.99
2016-12-12T04:07:58.452Z,99.99
2016-12-12T04:08:58.430Z,99.99
2016-12-12T04:09:58.507Z,99.99
2016-12-12T04:10:58.496Z,99.99
2016-12-12T04:11:58.497Z,99.99
2016-12-12T04:12:58.691Z,99.99
2016-12-12T04:13:58.515Z,99.99
2016-12-12T04:14:58.451Z,99.99
2016-12-12T04:15:58.394Z,99.99
2016-12-12T04:16:58.431Z,99.99
2016-12-12T04:17:58.522Z,99.99
2016-12-12T04:18:58.426Z,99.99
2016-12-12T04:19:58.459Z,99.99
2016-12-12T04:20:58.543Z,99.99
2016-12-12T04:21:58.487Z,99.99
2016-12-12T04:22:58.521Z,99.99
2016-12-12T04:23:58.509Z,99.99
2016-12-12T04:24:59.435Z,99.99
2016-12-12T04:25:58.430Z,99.99
2016-12-12T04:26:58.542Z,99.99
2016-12-12T04:27:58.473Z,99.99
2016-12-12T04:28:58.484Z,99.99
2016-12-12T04:29:58.528Z,99.99
2016-12-12T04:30:58.501Z,99.99
2016-12-12T04:31:58.463Z,99.99
2016-12-12T04:32:58.562Z,99.99
2016-12-12T04:33:58.466Z,99.99
2016-12-12T04:34:58.557Z,99.99
2016-12-12T04:35:58.438Z,99.99
2016-12-12T04:36:58.455Z,99.99
2016-12-12T04:37:58.472Z,99.99
2016-12-12T04:38:58.444Z,99.99
2016-12-12T04:39:58.515Z,99.99
2016-12-12T04:40:58.444Z,99.99
2016-12-12T04:41:58.396Z,99.99
2016-12-12T04:42:58.421Z,99.99
2016-12-12T04:43:58.470Z,99.99
2016-12-12T04:44:58.520Z,99.99
2016-12-12T04:45:58.465Z,99.99
2016-12-12T04:46:58.463Z,99.99
2016-12-12T04:47:58.504Z,99.99
2016-12-12T04:48:58.480Z,99.99
2016-12-12T04:49:58.519Z,99.99
2016-12-12T04:50:58.454Z,99.99
2016-12-12T04:51:58.500Z,99.99
2016-12-12T04:52:58.461Z,99.99
2016-12-12T04:53:58.534Z,99.99
2016-12-12T04:54:58.533Z,99.99
2016-12-12T04:55:58.473Z,99.99
2016-12-12T04:56:58.433Z,99.99
2016-12-12T04:57:58.531Z,99.99
2016-12-12T04:58:58.483Z,99.99
2016-12-12T04:59:58.499Z,99.99
2016-12-12T05:00:58.461Z,99.99
2016-12-12T05:01:58.472Z,99.99
2016-12-12T05:02:58.471Z,99.99
2016-12-12T05:03:58.488Z,99.99
2016-12-12T05:04:58.499Z,99.99
2016-12-12T05:05:58.508Z,99.99
2016-12-12T05:06:58.524Z,99.99
2016-12-12T05:07:58.465Z,99.99
2016-12-12T05:08:58.471Z,99.99
2016-12-12T05:09:58.483Z,99.99
2016-12-12T05:10:58.632Z,99.99
2016-12-12T05:11:58.505Z,99.99
2016-12-12T05:12:58.533Z,99.99
2016-12-12T05:13:58.502Z,99.99
2016-12-12T05:14:58.539Z,99.99
2016-12-12T05:15:58.501Z,99.99
2016-12-12T05:16:58.600Z,99.99
2016-12-12T05:17:58.463Z,99.99
2016-12-12T05:18:58.542Z,99.99
2016-12-12T05:19:58.506Z,99.99
2016-12-12T05:20:58.581Z,99.99
2016-12-12T05:21:58.510Z,99.99
2016-12-12T05:22:58.519Z,99.99
2016-12-12T05:23:58.570Z,99.99
2016-12-12T05:24:58.502Z,99.99
2016-12-12T05:25:58.599Z,99.99
2016-12-12T05:26:58.514Z,99.99
2016-12-12T05:27:59.213Z,99.99
2016-12-12T05:28:58.494Z,99.99
2016-12-12T05:29:58.489Z,99.99
2016-12-12T05:30:58.595Z,99.99
2016-12-12T05:31:58.547Z,99.99
2016-12-12T05:32:58.663Z,99.99
2016-12-12T05:33:58.512Z,99.99
2016-12-12T05:34:58.653Z,99.99
2016-12-12T05:35:58.494Z,99.99
2016-12-12T05:36:58.554Z,99.99
2016-12-12T05:37:58.499Z,99.99
2016-12-12T05:38:58.642Z,99.99
2016-12-12T05:39:58.643Z,99.99
2016-12-12T05:40:58.552Z,99.99
2016-12-12T05:41:58.550Z,99.99
2016-12-12T05:42:58.527Z,99.99
2016-12-12T05:43:58.504Z,99.99
2016-12-12T05:44:58.639Z,99.99
2016-12-12T05:45:58.507Z,99.99
2016-12-12T05:46:58.622Z,99.99
2016-12-12T05:47:58.578Z,99.99
2016-12-12T05:48:58.612Z,99.99
2016-12-12T05:49:58.533Z,99.99
2016-12-12T05:50:58.604Z,99.99
2016-12-12T05:51:59.017Z,99.99
2016-12-12T05:52:58.523Z,99.99
2016-12-12T05:53:58.537Z,99.99
2016-12-12T05:54:58.613Z,99.99
2016-12-12T05:55:58.543Z,99.99
2016-12-12T05:56:58.590Z,99.99
2016-12-12T05:57:58.581Z,99.99
2016-12-12T05:58:58.524Z,99.99
2016-12-12T05:59:58.553Z,99.99
2016-12-12T06:00:58.674Z,99.99
2016-12-12T06:01:59.160Z,99.99
2016-12-12T06:02:58.533Z,99.99
2016-12-12T06:03:58.562Z,99.99
2016-12-12T06:04:58.753Z,99.99
2016-12-12T06:05:58.584Z,99.99
2016-12-12T06:06:58.634Z,99.99
2016-12-12T06:07:58.593Z,99.99
2016-12-12T06:08:58.568Z,99.99
2016-12-12T06:09:58.617Z,99.99
2016-12-12T06:10:58.674Z,99.99
2016-12-12T06:11:58.594Z,99.99
2016-12-12T06:13:02.826Z,99.99
2016-12-12T06:13:58.594Z,99.99
2016-12-12T06:14:58.668Z,99.99
2016-12-12T06:15:58.636Z,99.99
2016-12-12T06:16:58.657Z,99.99
2016-12-12T06:17:58.556Z,99.99
2016-12-12T06:18:58.565Z,99.99
2016-12-12T06:19:58.596Z,99.99
2016-12-12T06:20:59.274Z,99.99
2016-12-12T06:21:58.605Z,99.99
2016-12-12T06:22:58.604Z,99.99
2016-12-12T06:23:59.246Z,99.99
2016-12-12T06:24:58.597Z,99.99
2016-12-12T06:25:58.526Z,99.99
2016-12-12T06:26:58.707Z,99.99
2016-12-12T06:27:58.570Z,99.99
2016-12-12T06:28:58.693Z,99.99
2016-12-12T06:29:58.575Z,99.99
2016-12-12T06:30:58.626Z,99.99
2016-12-12T06:31:58.573Z,99.99
2016-12-12T06:32:58.698Z,99.99
2016-12-12T06:33:58.552Z,99.99
2016-12-12T06:34:59.041Z,99.99
2016-12-12T06:35:58.574Z,99.99
2016-12-12T06:36:58.604Z,99.99
2016-12-12T06:37:58.583Z,99.99
2016-12-12T06:38:58.709Z,99.99
2016-12-12T06:39:58.672Z,99.99
2016-12-12T06:40:58.685Z,99.99
2016-12-12T06:41:58.632Z,99.99
2016-12-12T06:42:58.668Z,99.99
2016-12-12T06:43:58.606Z,99.99
2016-12-12T06:44:58.644Z,99.99
2016-12-12T06:45:58.626Z,99.99
2016-12-12T06:46:58.668Z,99.99
2016-12-12T06:47:58.645Z,99.99
2016-12-12T06:48:58.690Z,99.99
2016-12-12T06:49:58.616Z,99.99
2016-12-12T06:50:58.729Z,99.99
2016-12-12T06:51:58.616Z,99.99
2016-12-12T06:52:58.737Z,99.99
2016-12-12T06:53:58.613Z,99.99
2016-12-12T06:54:58.694Z,99.99
2016-12-12T06:55:58.635Z,99.99
2016-12-12T06:56:58.656Z,99.99
2016-12-12T06:57:58.689Z,99.99
2016-12-12T06:58:58.737Z,99.99
2016-12-12T06:59:58.701Z,99.99
2016-12-12T07:00:58.772Z,99.99
2016-12-12T07:01:58.636Z,99.99
2016-12-12T07:02:58.664Z,99.99
2016-12-12T07:03:58.615Z,99.99
2016-12-12T07:04:58.743Z,99.99
2016-12-12T07:05:58.614Z,99.99
2016-12-12T07:06:58.629Z,99.99
2016-12-12T07:07:58.638Z,99.99
2016-12-12T07:08:58.695Z,99.99
2016-12-12T07:09:58.658Z,99.99
2016-12-12T07:10:58.650Z,99.99
2016-12-12T07:11:58.686Z,99.99
2016-12-12T07:12:58.670Z,99.99
2016-12-12T07:13:58.635Z,99.99
2016-12-12T07:15:01.494Z,99.99
2016-12-12T07:15:58.664Z,99.99
2016-12-12T07:16:58.719Z,99.99
2016-12-12T07:17:58.634Z,99.99
2016-12-12T07:18:58.671Z,99.99
2016-12-12T07:19:58.689Z,99.99
2016-12-12T07:20:58.740Z,99.99
2016-12-12T07:21:58.667Z,99.99
2016-12-12T07:22:58.768Z,99.99
2016-12-12T07:23:58.599Z,99.99
2016-12-12T07:24:58.809Z,99.99
2016-12-12T07:25:58.622Z,99.99
2016-12-12T07:26:58.680Z,99.99
2016-12-12T07:27:58.646Z,99.99
2016-12-12T07:28:58.767Z,99.99
2016-12-12T07:29:58.652Z,99.99
2016-12-12T07:30:58.665Z,99.99
2016-12-12T07:31:58.671Z,99.99
2016-12-12T07:32:58.714Z,99.99
2016-12-12T07:33:58.633Z,99.99
2016-12-12T07:34:58.713Z,99.99
2016-12-12T07:35:58.657Z,99.99
2016-12-12T07:36:58.694Z,99.99
2016-12-12T07:37:58.694Z,99.99
2016-12-12T07:38:58.810Z,99.99
2016-12-12T07:39:58.717Z,99.99
2016-12-12T07:40:58.801Z,99.99
2016-12-12T07:41:58.685Z,99.99
2016-12-12T07:42:58.746Z,99.99
2016-12-12T07:43:58.681Z,99.99
2016-12-12T07:44:58.732Z,99.99
2016-12-12T07:45:58.681Z,99.99
2016-12-12T07:46:58.698Z,99.99
2016-12-12T07:47:58.658Z,99.99
2016-12-12T07:48:58.648Z,99.99
2016-12-12T07:50:08.788Z,99.99
2016-12-12T07:50:58.737Z,99.99
2016-12-12T07:51:58.695Z,99.99
2016-12-12T07:52:58.794Z,99.99
2016-12-12T07:53:58.695Z,99.99
2016-12-12T07:54:58.831Z,99.99
2016-12-12T07:55:58.699Z,99.99
2016-12-12T07:56:58.684Z,99.99
2016-12-12T07:57:58.686Z,99.99
2016-12-12T07:58:58.713Z,99.99
2016-12-12T07:59:58.728Z,99.99
2016-12-12T08:00:58.836Z,99.99
2016-12-12T08:01:58.700Z,99.99
2016-12-12T08:02:58.782Z,99.99
2016-12-12T08:03:58.706Z,99.99
2016-12-12T08:04:58.886Z,99.99
2016-12-12T08:05:58.708Z,99.99
2016-12-12T08:06:59.889Z,99.99
2016-12-12T08:07:58.726Z,99.99
2016-12-12T08:08:58.913Z,99.99
2016-12-12T08:09:58.684Z,99.99
2016-12-12T08:10:58.848Z,99.99
2016-12-12T08:11:58.701Z,99.99
2016-12-12T08:12:58.809Z,99.99
2016-12-12T08:13:58.703Z,99.99
2016-12-12T08:14:58.703Z,99.99
2016-12-12T08:15:58.728Z,99.99
2016-12-12T08:16:58.743Z,99.99
2016-12-12T08:17:58.708Z,99.99
2016-12-12T08:18:58.877Z,99.99
2016-12-12T08:19:58.729Z,99.99
2016-12-12T08:20:58.783Z,99.99
2016-12-12T08:21:58.728Z,99.99
2016-12-12T08:22:58.726Z,99.99
2016-12-12T08:23:58.723Z,99.99
2016-12-12T08:24:58.745Z,99.99
2016-12-12T08:25:58.696Z,99.99
2016-12-12T08:26:58.809Z,99.99
2016-12-12T08:27:58.708Z,99.99
2016-12-12T08:28:58.855Z,99.99
2016-12-12T08:29:58.783Z,99.99
2016-12-12T08:30:58.834Z,99.99
2016-12-12T08:31:58.849Z,99.99
2016-12-12T08:32:58.867Z,99.99
2016-12-12T08:33:58.701Z,99.93
2016-12-12T08:34:58.785Z,99.93
2016-12-12T08:35:58.747Z,99.99
2016-12-12T08:36:59.447Z,99.93
2016-12-12T08:37:58.728Z,99.99
2016-12-12T08:38:58.760Z,99.74
2016-12-12T08:39:58.845Z,99.74
2016-12-12T08:40:58.822Z,99.07
2016-12-12T08:41:58.763Z,99.16
2016-12-12T08:43:08.767Z,99.16
2016-12-12T08:43:58.737Z,99.36
2016-12-12T08:44:58.769Z,99.26
2016-12-12T08:45:58.744Z,99.16
2016-12-12T08:46:58.824Z,99.12
2016-12-12T08:47:58.759Z,98.83
2016-12-12T08:48:58.884Z,99.41
2016-12-12T08:49:58.793Z,98.83
2016-12-12T08:50:58.784Z,99.31
2016-12-12T08:51:58.751Z,99.41
2016-12-12T08:52:58.749Z,98.55
2016-12-12T08:53:58.776Z,98.46
2016-12-12T08:54:58.787Z,97.69
2016-12-12T08:55:58.786Z,97.88
2016-12-12T08:56:58.887Z,97.69
2016-12-12T08:57:58.727Z,97.5
2016-12-12T08:58:58.878Z,97.69
2016-12-12T08:59:58.803Z,97.5
2016-12-12T09:00:58.818Z,98.08
2016-12-12T09:01:58.716Z,97.88
2016-12-12T09:02:58.773Z,97.5
2016-12-12T09:03:58.759Z,97.41
2016-12-12T09:04:58.800Z,97.31
2016-12-12T09:05:58.758Z,97.22
2016-12-12T09:06:58.868Z,97.6
2016-12-12T09:07:58.767Z,97.31
2016-12-12T09:08:58.871Z,97.6
2016-12-12T09:09:58.815Z,96.84
2016-12-12T09:10:58.791Z,97.41
2016-12-12T09:11:58.940Z,97.03
2016-12-12T09:12:58.781Z,96.94
2016-12-12T09:13:58.771Z,96.65
2016-12-12T09:14:58.909Z,96.46
2016-12-12T09:15:58.747Z,96.65
2016-12-12T09:16:58.854Z,96.94
2016-12-12T09:17:58.797Z,96.65
2016-12-12T09:18:58.809Z,96.36
2016-12-12T09:19:58.788Z,96.65
2016-12-12T09:20:58.787Z,96.74
2016-12-12T09:21:58.778Z,96.74
2016-12-12T09:22:58.856Z,97.31
2016-12-12T09:23:58.742Z,96.65
2016-12-12T09:24:58.860Z,96.84
2016-12-12T09:25:59.805Z,96.46
2016-12-12T09:26:58.848Z,96.94
2016-12-12T09:27:58.795Z,96.84
2016-12-12T09:28:58.877Z,96.12
2016-12-12T09:29:58.855Z,96.46
2016-12-12T09:30:58.785Z,96.74
2016-12-12T09:31:58.782Z,96.55
2016-12-12T09:32:58.774Z,96.55
2016-12-12T09:33:58.807Z,96.79
2016-12-12T09:34:58.839Z,96.41
2016-12-12T09:35:58.819Z,96.41
2016-12-12T09:36:58.937Z,95.84
2016-12-12T09:37:58.859Z,95.79
2016-12-12T09:38:58.903Z,96.89
2016-12-12T09:39:58.828Z,95.84
2016-12-12T09:40:58.816Z,96.31
2016-12-12T09:41:58.807Z,95.94
2016-12-12T09:42:58.866Z,96.79
2016-12-12T09:43:58.876Z,96.41
2016-12-12T09:44:58.905Z,96.7
2016-12-12T09:45:58.835Z,96.98
2016-12-12T09:46:58.858Z,97.17
2016-12-12T09:47:58.832Z,97.27
2016-12-12T09:48:58.979Z,96.79
2016-12-12T09:49:58.831Z,96.7
2016-12-12T09:50:58.890Z,96.6
2016-12-12T09:51:58.833Z,96.51
2016-12-12T09:52:59.053Z,96.12
2016-12-12T09:53:58.837Z,96.22
2016-12-12T09:54:59.025Z,96.7
2016-12-12T09:55:58.829Z,96.51
2016-12-12T09:56:58.851Z,96.7
2016-12-12T09:57:58.838Z,96.41
2016-12-12T09:58:58.816Z,96.89
2016-12-12T09:59:58.834Z,96.84
2016-12-12T10:00:58.968Z,96.98
2016-12-12T10:01:58.860Z,96.65
2016-12-12T10:02:58.857Z,97.03
2016-12-12T10:03:58.846Z,97.22
2016-12-12T10:04:58.867Z,97.03
2016-12-12T10:05:58.818Z,97.31
2016-12-12T10:06:58.856Z,96.46
2016-12-12T10:07:58.869Z,96.84
2016-12-12T10:08:58.864Z,96.84
2016-12-12T10:09:58.908Z,97.03
2016-12-12T10:10:58.876Z,97.41
2016-12-12T10:11:58.809Z,96.84
2016-12-12T10:12:59.056Z,96.84
2016-12-12T10:13:58.848Z,97.31
2016-12-12T10:14:58.930Z,96.74
2016-12-12T10:15:58.879Z,96.03
2016-12-12T10:16:58.978Z,96.08
2016-12-12T10:17:58.893Z,96.55
2016-12-12T10:18:58.878Z,97.13
2016-12-12T10:19:58.816Z,97.22
2016-12-12T10:20:58.868Z,97.31
2016-12-12T10:21:58.858Z,96.55
2016-12-12T10:22:58.920Z,96.17
2016-12-12T10:23:58.858Z,96.03
2016-12-12T10:24:59.328Z,96.03
2016-12-12T10:25:58.867Z,95.94
2016-12-12T10:26:58.896Z,96.12
2016-12-12T10:27:58.903Z,96.22
2016-12-12T10:28:58.987Z,96.98
2016-12-12T10:29:58.911Z,95.94
2016-12-12T10:30:58.873Z,95.6
2016-12-12T10:31:58.856Z,95.84
2016-12-12T10:32:58.958Z,95.65
2016-12-12T10:33:58.952Z,95.36
2016-12-12T10:34:59.028Z,95.84
2016-12-12T10:35:58.953Z,95.65
2016-12-12T10:36:58.949Z,95.46
2016-12-12T10:37:58.906Z,96.31
2016-12-12T10:38:58.903Z,95.36
2016-12-12T10:39:58.974Z,94.98
2016-12-12T10:40:59.041Z,94.89
2016-12-12T10:41:58.926Z,94.7
2016-12-12T10:42:58.948Z,95.46
2016-12-12T10:43:58.937Z,95.84
2016-12-12T10:44:59.069Z,95.36
2016-12-12T10:45:58.942Z,95.56
2016-12-12T10:46:58.933Z,95.7
2016-12-12T10:47:58.884Z,95.56
2016-12-12T10:48:58.929Z,95.46
2016-12-12T10:49:58.925Z,95.41
2016-12-12T10:50:58.926Z,95.56
2016-12-12T10:51:58.950Z,95.6
2016-12-12T10:52:58.943Z,94.93
2016-12-12T10:53:58.947Z,94.79
2016-12-12T10:54:59.027Z,94.22
2016-12-12T10:55:58.964Z,94.89
2016-12-12T10:56:58.957Z,95.36
2016-12-12T10:57:58.943Z,95.36
2016-12-12T10:58:58.903Z,95.46
2016-12-12T10:59:58.957Z,95.12
2016-12-12T11:00:58.916Z,95.12
2016-12-12T11:01:58.921Z,95.7
2016-12-12T11:02:59.001Z,95.7
2016-12-12T11:03:58.946Z,95.79
2016-12-12T11:04:58.993Z,96.55
2016-12-12T11:05:58.969Z,96.46
2016-12-12T11:06:58.986Z,96.55
2016-12-12T11:07:58.927Z,96.46
2016-12-12T11:08:58.995Z,96.17
2016-12-12T11:09:59.016Z,95.98
2016-12-12T11:10:59.036Z,95.98
2016-12-12T11:11:59.150Z,96.17
2016-12-12T11:12:59.057Z,95.89
2016-12-12T11:13:58.998Z,95.79
2016-12-12T11:14:59.012Z,94.93
2016-12-12T11:15:58.925Z,95.89
2016-12-12T11:16:58.997Z,94.93
2016-12-12T11:17:58.931Z,95.03
2016-12-12T11:18:59.021Z,95.22
2016-12-12T11:19:58.936Z,95.41
2016-12-12T11:20:59.027Z,95.94
2016-12-12T11:21:59.020Z,95.6
2016-12-12T11:22:59.565Z,95.79
2016-12-12T11:23:58.967Z,95.56
2016-12-12T11:24:59.101Z,95.79
2016-12-12T11:25:59.035Z,96.12
2016-12-12T11:26:59.133Z,96.36
2016-12-12T11:27:59.008Z,95.84
2016-12-12T11:28:59.036Z,95.46
2016-12-12T11:29:58.959Z,95.56
2016-12-12T11:30:59.053Z,95.08
2016-12-12T11:31:58.958Z,95.46
2016-12-12T11:32:59.086Z,94.98
2016-12-12T11:33:58.967Z,94.89
2016-12-12T11:34:59.091Z,94.7
2016-12-12T11:35:59.026Z,94.89
2016-12-12T11:36:58.999Z,94.7
2016-12-12T11:37:59.032Z,94.51
2016-12-12T11:38:59.009Z,94.03
2016-12-12T11:39:58.985Z,93.65
2016-12-12T11:40:59.122Z,94.42
2016-12-12T11:41:58.976Z,93.89
2016-12-12T11:42:58.996Z,93.51
2016-12-12T11:43:59.033Z,94.08
2016-12-12T11:44:59.136Z,93.03
2016-12-12T11:45:59.034Z,93.32
2016-12-12T11:46:59.116Z,92.55
2016-12-12T11:47:59.046Z,93.03
2016-12-12T11:48:59.146Z,93.13
2016-12-12T11:49:59.069Z,93.13
2016-12-12T11:50:58.977Z,92.94
2016-12-12T11:51:59.058Z,92.46
2016-12-12T11:52:59.001Z,92.74
2016-12-12T11:53:59.018Z,92.46
2016-12-12T11:54:59.797Z,92.27
2016-12-12T11:55:59.017Z,92.65
2016-12-12T11:56:59.010Z,92.74
2016-12-12T11:57:58.989Z,92.46
2016-12-12T11:58:58.962Z,92.08
2016-12-12T11:59:58.972Z,91.7
2016-12-12T12:00:59.005Z,91.99
2016-12-12T12:01:58.964Z,91.99
2016-12-12T12:02:59.001Z,92.46
2016-12-12T12:03:59.010Z,93.22
2016-12-12T12:04:59.162Z,94.17
2016-12-12T12:05:59.013Z,93.79
2016-12-12T12:06:59.036Z,94.65
2016-12-12T12:07:58.971Z,93.89
2016-12-12T12:08:59.173Z,94.08
2016-12-12T12:09:59.021Z,94.6
2016-12-12T12:10:59.068Z,93.6
2016-12-12T12:11:58.991Z,93.89
2016-12-12T12:12:59.012Z,93.89
2016-12-12T12:13:58.961Z,93.6
2016-12-12T12:14:59.058Z,93.41
2016-12-12T12:15:58.987Z,94.08
2016-12-12T12:16:59.005Z,93.41
2016-12-12T12:17:58.992Z,93.89
2016-12-12T12:18:59.115Z,93.51
2016-12-12T12:19:59.117Z,93.51
2016-12-12T12:20:59.139Z,93.89
2016-12-12T12:21:59.048Z,93.6
2016-12-12T12:22:59.159Z,93.6
2016-12-12T12:23:58.977Z,93.89
2016-12-12T12:24:59.147Z,94.08
2016-12-12T12:25:59.041Z,93.32
2016-12-12T12:26:59.041Z,93.46
2016-12-12T12:27:59.009Z,93.55
2016-12-12T12:28:59.116Z,93.55
2016-12-12T12:29:59.036Z,93.37
2016-12-12T12:30:59.864Z,93.84
2016-12-12T12:31:58.998Z,94.22
2016-12-12T12:32:59.084Z,93.94
2016-12-12T12:33:59.063Z,93.65
2016-12-12T12:34:59.063Z,93.37
2016-12-12T12:35:59.054Z,93.27
2016-12-12T12:36:59.031Z,93.37
2016-12-12T12:37:59.034Z,93.84
2016-12-12T12:38:59.079Z,94.6
2016-12-12T12:39:59.013Z,94.03
2016-12-12T12:40:59.048Z,94.32
2016-12-12T12:41:59.057Z,94.03
2016-12-12T12:42:59.106Z,93.94
2016-12-12T12:43:59.128Z,93.55
2016-12-12T12:44:59.133Z,93.74
2016-12-12T12:45:59.054Z,93.46
2016-12-12T12:46:59.018Z,93.6
2016-12-12T12:47:59.079Z,93.32
2016-12-12T12:48:59.066Z,92.46
2016-12-12T12:49:59.061Z,91.7
2016-12-12T12:50:59.088Z,91.7
2016-12-12T12:51:59.058Z,91.51
2016-12-12T12:52:59.131Z,91.22
2016-12-12T12:53:59.075Z,91.13